Time;durP1;ratioP1;P1;durP2;ratioP2;P2;SDS_P1;SDS_P2;PMS_P1;PMS_P2;Temp;Humidity;BMP_temperature;BMP_pressure;BME280_temperature;BME280_humidity;BME280_pressure;Samples;Min_cycle;Max_cycle;Signal;HPM_P1;HPM_P2
2023/02/27 00:00:55;;;;;;;;;5.50;4.00;;;;;2.53;44.66;102179.63;5054405;28;47490;-54
2023/02/27 00:03:20;;;;;;;;;8.00;6.25;;;;;2.51;44.81;102189.28;5059202;28;45515;-52
2023/02/27 00:05:46;;;;;;;;;3.50;3.00;;;;;2.47;45.57;102170.84;5056027;28;45584;-50
2023/02/27 00:08:11;;;;;;;;;5.00;5.00;;;;;2.45;45.20;102177.88;5054474;28;55274;-51
2023/02/27 00:10:36;;;;;;;;;7.00;4.00;;;;;2.45;45.30;102180.50;5054051;28;46076;-51
2023/02/27 00:13:02;;;;;;;;;10.00;3.00;;;;;2.43;45.21;102182.22;5054262;28;45365;-54
2023/02/27 00:15:29;;;;;;;;;3.00;3.00;;;;;2.45;45.57;102175.25;5058752;28;45430;-51
2023/02/27 00:17:55;;;;;;;;;6.50;6.50;;;;;2.43;45.49;102181.34;5059369;28;45663;-53
2023/02/27 00:20:20;;;;;;;;;8.75;6.00;;;;;2.42;45.46;102177.81;5054471;28;46221;-52
2023/02/27 00:22:46;;;;;;;;;6.75;6.00;;;;;2.42;45.62;102177.81;5056015;28;64210;-53
2023/02/27 00:25:12;;;;;;;;;5.00;5.00;;;;;2.42;45.79;102179.59;5053654;28;49042;-52
2023/02/27 00:27:38;;;;;;;;;3.00;3.00;;;;;2.42;45.50;102183.06;5059102;28;45299;-53
2023/02/27 00:30:05;;;;;;;;;5.00;5.00;;;;;2.41;45.16;102181.34;5057068;28;45573;-53
2023/02/27 00:32:30;;;;;;;;;7.25;5.00;;;;;2.40;45.55;102182.22;5056561;28;45298;-51
2023/02/27 00:34:56;;;;;;;;;6.50;3.00;;;;;2.39;45.57;102180.44;5056627;28;45482;-53
2023/02/27 00:37:21;;;;;;;;;6.50;5.00;;;;;2.40;45.16;102181.31;5051344;28;45702;-52
2023/02/27 00:39:46;;;;;;;;;6.25;6.25;;;;;2.39;45.53;102176.94;5056953;28;56266;-52
2023/02/27 00:42:12;;;;;;;;;5.50;5.50;;;;;2.36;45.42;102177.81;5058264;28;62020;-50
2023/02/27 00:44:37;;;;;;;;;4.50;4.00;;;;;2.38;45.61;102183.06;5052623;28;47535;-53
2023/02/27 00:47:03;;;;;;;;;7.00;6.00;;;;;2.34;46.08;102183.94;5051515;28;45275;-54
2023/02/27 00:49:28;;;;;;;;;6.75;6.75;;;;;2.33;45.83;102188.28;5054161;28;45660;-53
2023/02/27 00:51:53;;;;;;;;;5.50;5.00;;;;;2.30;46.30;102186.50;5053982;28;45784;-51
2023/02/27 00:54:19;;;;;;;;;5.25;5.25;;;;;2.29;46.04;102189.13;5051258;28;45490;-52
2023/02/27 00:56:45;;;;;;;;;5.00;5.00;;;;;2.28;45.90;102193.53;5056011;28;45459;-51
2023/02/27 00:59:10;;;;;;;;;6.00;6.00;;;;;2.28;46.06;102190.00;5056861;28;46144;-52
2023/02/27 01:01:35;;;;;;;;;6.00;6.00;;;;;2.26;46.19;102200.50;5056202;28;65154;-50
2023/02/27 01:04:01;;;;;;;;;5.00;5.00;;;;;2.24;46.91;102203.97;5057292;28;45439;-53
2023/02/27 01:06:26;;;;;;;;;2.00;1.50;;;;;2.21;47.31;102203.97;5057031;28;45628;-54
2023/02/27 01:08:52;;;;;;;;;8.25;6.00;;;;;2.22;47.06;102197.84;5058439;28;46162;-52
2023/02/27 01:11:17;;;;;;;;;2.00;2.00;;;;;2.20;47.20;102202.19;5058070;28;55372;-52
2023/02/27 01:13:45;;;;;;;;;5.50;4.50;;;;;2.17;46.52;102196.94;5058611;28;45771;-52
2023/02/27 01:16:10;;;;;;;;;9.25;6.75;;;;;2.12;47.92;102203.00;5058317;28;45575;-53
2023/02/27 01:18:36;;;;;;;;;12.50;6.25;;;;;2.12;47.43;102200.38;5057562;28;48316;-53
2023/02/27 01:21:01;;;;;;;;;6.25;6.25;;;;;2.09;47.18;102197.75;5055271;28;45412;-53
2023/02/27 01:23:26;;;;;;;;;7.75;6.00;;;;;2.07;47.93;102193.34;5058828;28;45853;-52
2023/02/27 01:25:52;;;;;;;;;2.00;2.00;;;;;2.07;48.96;102193.34;5057114;28;59773;-52
2023/02/27 01:28:17;;;;;;;;;7.50;5.00;;;;;2.03;48.00;102191.56;5055160;28;46370;-53
2023/02/27 05:32:19;;;;;;;;;8.25;7.00;;;;;1.17;52.17;102217.84;5157310;23;45900;-58
2023/02/27 05:34:56;;;;;;;;;5.00;5.00;;;;;1.16;52.74;102224.81;4960713;28;45511;-58
2023/02/27 05:37:30;;;;;;;;;11.50;7.25;;;;;1.15;52.86;102228.31;4960813;28;45486;-57
2023/02/27 05:39:56;;;;;;;;;10.25;6.75;;;;;1.14;52.91;102222.19;4959279;28;46297;-58
2023/02/27 05:42:33;;;;;;;;;7.25;7.25;;;;;1.17;52.10;102220.47;4958295;28;45502;-58
2023/02/27 05:45:04;;;;;;;;;9.25;8.50;;;;;1.18;53.36;102222.25;4960796;28;45354;-58
2023/02/27 05:47:32;;;;;;;;;7.25;7.25;;;;;1.13;52.25;102217.84;4960557;28;45492;-58
2023/02/27 05:50:05;;;;;;;;;7.25;6.50;;;;;1.12;53.18;102233.50;4963251;28;48541;-58
2023/02/27 05:52:31;;;;;;;;;6.25;6.25;;;;;1.11;53.35;102219.53;4962682;28;46724;-58
2023/02/27 05:55:05;;;;;;;;;6.00;5.75;;;;;1.11;53.24;102222.16;4964368;28;45528;-58
2023/02/27 05:57:47;;;;;;;;;8.75;8.75;;;;;1.11;52.64;102227.41;4946208;28;45518;-59
2023/02/27 06:00:32;;;;;;;;;10.25;6.50;;;;;1.12;53.42;102215.16;4959247;28;46659;-58
2023/02/27 06:02:58;;;;;;;;;7.50;7.50;;;;;1.11;53.70;102222.16;4960592;28;45623;-58
2023/02/27 06:05:24;;;;;;;;;7.75;5.75;;;;;1.12;52.83;102229.16;4969304;28;45745;-57
2023/02/27 06:07:50;;;;;;;;;5.00;5.00;;;;;1.12;53.35;102228.28;4960377;28;58526;-58
2023/02/27 06:10:18;;;;;;;;;5.50;5.50;;;;;1.12;53.85;102233.50;4952296;28;45416;-58
2023/02/27 06:12:44;;;;;;;;;6.50;6.50;;;;;1.13;53.08;102237.91;4961744;28;45421;-58
2023/02/27 06:15:10;;;;;;;;;7.50;6.00;;;;;1.11;52.89;102230.03;4959904;28;45472;-57
2023/02/27 06:17:36;;;;;;;;;12.00;7.00;;;;;1.12;53.80;102237.03;4959964;28;45596;-58
2023/02/27 06:20:02;;;;;;;;;6.50;1.00;;;;;1.13;53.98;102230.94;4959165;28;46393;-57
2023/02/27 06:22:27;;;;;;;;;7.00;5.25;;;;;1.14;53.67;102231.81;4942679;28;45443;-57
2023/02/27 06:24:53;;;;;;;;;10.25;6.00;;;;;1.13;53.31;102227.41;4958131;28;45409;-58
2023/02/27 06:27:18;;;;;;;;;9.00;5.00;;;;;1.10;54.30;102228.25;4959851;28;45675;-57
2023/02/27 06:29:44;;;;;;;;;9.50;6.25;;;;;1.13;53.85;102236.19;4949934;28;45945;-58
2023/02/27 06:32:09;;;;;;;;;9.00;6.00;;;;;1.12;53.88;102231.78;4974125;28;45455;-58
2023/02/27 06:34:34;;;;;;;;;7.50;7.25;;;;;1.11;54.01;102243.13;4961183;28;45660;-59
2023/02/27 06:37:00;;;;;;;;;5.75;5.75;;;;;1.13;54.05;102243.16;4965181;28;45455;-58
2023/02/27 06:39:25;;;;;;;;;9.75;6.00;;;;;1.12;53.15;102244.00;4964035;28;45601;-57
2023/02/27 06:41:50;;;;;;;;;9.75;8.75;;;;;1.11;53.89;102252.75;4963532;28;45395;-57
2023/02/27 06:44:16;;;;;;;;;6.50;4.25;;;;;1.14;53.12;102247.53;4962052;28;57695;-57
2023/02/27 06:46:41;;;;;;;;;6.00;6.00;;;;;1.12;52.83;102264.97;4961588;28;45542;-58
2023/02/27 06:49:06;;;;;;;;;5.75;5.00;;;;;1.11;53.32;102252.75;4965799;28;67813;-57
2023/02/27 06:51:32;;;;;;;;;9.25;7.25;;;;;1.14;53.21;102260.63;4976005;28;64283;-57
2023/02/27 06:53:57;;;;;;;;;6.25;6.25;;;;;1.15;52.94;102273.75;4976184;28;60603;-58
2023/02/27 06:56:23;;;;;;;;;5.50;5.50;;;;;1.17;53.40;102267.66;4963495;28;45594;-57
2023/02/27 06:58:48;;;;;;;;;6.50;6.00;;;;;1.20;52.91;102276.44;4960451;28;50509;-58
2023/02/27 07:01:13;;;;;;;;;8.25;8.00;;;;;1.21;53.18;102272.06;4960176;28;45859;-57
2023/02/27 07:03:39;;;;;;;;;5.50;5.50;;;;;1.23;53.55;102265.13;4961541;28;45402;-58
2023/02/27 07:06:05;;;;;;;;;5.25;5.00;;;;;1.22;53.51;102272.09;4963290;28;45388;-58
2023/02/27 07:08:30;;;;;;;;;5.75;5.50;;;;;1.26;52.68;102267.78;4965286;28;46357;-58
2023/02/27 07:10:56;;;;;;;;;7.00;5.75;;;;;1.30;52.72;102269.56;4960933;28;45469;-58
2023/02/27 07:13:22;;;;;;;;;5.75;5.75;;;;;1.33;53.07;102287.97;4961490;28;59745;-58
2023/02/27 07:15:49;;;;;;;;;4.50;4.00;;;;;1.31;53.15;102280.06;4956919;28;45722;-58
2023/02/27 07:18:14;;;;;;;;;7.25;6.00;;;;;1.38;52.81;102277.53;4966708;28;46747;-57
2023/02/27 07:20:40;;;;;;;;;4.50;4.50;;;;;1.42;52.71;102277.59;4967134;28;45522;-57
2023/02/27 07:23:05;;;;;;;;;8.25;5.00;;;;;1.43;52.52;102286.31;4969499;28;45501;-57
2023/02/27 07:25:31;;;;;;;;;7.25;6.50;;;;;1.46;52.84;102288.97;4959634;28;45457;-58
2023/02/27 07:27:56;;;;;;;;;11.50;6.50;;;;;1.47;52.09;102289.00;4961241;28;45483;-59
2023/02/27 07:30:21;;;;;;;;;7.25;5.50;;;;;1.50;52.34;102296.03;4973571;28;45411;-58
2023/02/27 07:32:47;;;;;;;;;8.50;5.00;;;;;1.52;52.05;102289.06;4959024;28;45635;-58
2023/02/27 07:35:13;;;;;;;;;10.50;6.50;;;;;1.57;51.83;102296.97;4960982;28;45483;-57
2023/02/27 07:37:38;;;;;;;;;13.50;6.25;;;;;1.59;52.24;102297.88;4963078;28;45564;-58
2023/02/27 07:40:06;;;;;;;;;6.75;6.25;;;;;1.65;51.53;102300.56;4963038;28;45393;-58
2023/02/27 07:42:31;;;;;;;;;9.00;9.00;;;;;1.70;51.45;102296.25;4941986;28;45366;-58
2023/02/27 07:44:57;;;;;;;;;6.50;5.00;;;;;1.74;51.75;102289.28;4956315;28;45514;-53
2023/02/27 07:47:22;;;;;;;;;9.25;7.25;;;;;1.78;51.50;102294.56;4965758;28;58866;-57
2023/02/27 07:49:47;;;;;;;;;7.75;5.50;;;;;1.80;51.41;102299.88;4966485;28;45670;-55
2023/02/27 07:52:13;;;;;;;;;6.00;6.00;;;;;1.85;51.22;102292.03;4965675;28;45297;-58
2023/02/27 07:54:38;;;;;;;;;11.00;6.00;;;;;1.90;51.29;102311.31;4963761;28;45577;-57
2023/02/27 07:57:04;;;;;;;;;10.75;5.75;;;;;1.95;50.84;102315.75;4962887;28;46922;-56
2023/02/27 07:59:29;;;;;;;;;5.25;5.25;;;;;2.01;50.46;102309.69;4966953;28;45750;-57
2023/02/27 08:01:55;;;;;;;;;6.25;6.25;;;;;2.04;50.55;102309.72;4965953;28;56002;-57
2023/02/27 08:04:20;;;;;;;;;6.25;6.00;;;;;2.11;50.37;102318.50;4966382;28;45491;-56
2023/02/27 08:06:46;;;;;;;;;6.75;5.75;;;;;2.12;49.69;102318.53;4967364;28;46319;-56
2023/02/27 08:09:11;;;;;;;;;5.25;5.25;;;;;2.13;50.16;102322.91;4966345;28;45491;-56
2023/02/27 08:11:36;;;;;;;;;9.75;5.75;;;;;2.17;49.99;102329.09;4969584;28;45446;-56
2023/02/27 08:14:02;;;;;;;;;2.50;2.50;;;;;2.22;49.95;102330.00;4967335;28;60167;-57
2023/02/27 08:16:27;;;;;;;;;6.50;5.00;;;;;2.26;49.85;102321.28;4972705;28;46371;-57
2023/02/27 08:18:53;;;;;;;;;8.00;6.75;;;;;2.30;49.59;102320.44;4968235;28;45504;-57
2023/02/27 08:21:18;;;;;;;;;3.00;3.00;;;;;2.33;49.84;102324.84;4973144;28;45812;-57
2023/02/27 08:23:43;;;;;;;;;10.25;6.50;;;;;2.36;49.63;102314.38;4968372;28;45409;-56
2023/02/27 08:26:09;;;;;;;;;9.75;8.25;;;;;2.40;49.73;102324.03;4987608;28;56901;-57
2023/02/27 08:28:34;;;;;;;;;9.25;6.75;;;;;2.45;49.49;102318.81;4969770;28;45682;-57
2023/02/27 08:31:00;;;;;;;;;5.00;5.00;;;;;2.51;48.58;102316.25;4965873;28;51987;-57
2023/02/27 08:33:25;;;;;;;;;10.75;6.00;;;;;2.54;49.21;102325.88;4954867;28;59154;-59
2023/02/27 08:35:53;;;;;;;;;5.00;4.00;;;;;2.55;48.48;102320.63;4943053;28;46826;-57
2023/02/27 08:38:18;;;;;;;;;9.50;6.00;;;;;2.60;48.01;102318.06;4960875;28;45504;-57
2023/02/27 08:40:45;;;;;;;;;6.50;6.50;;;;;2.61;48.37;102319.84;4954265;28;45797;-57
2023/02/27 08:43:10;;;;;;;;;5.00;5.00;;;;;2.62;47.96;102332.97;4966871;28;45408;-57
2023/02/27 08:45:36;;;;;;;;;6.50;6.50;;;;;2.69;47.50;102317.25;4971919;28;64578;-57
2023/02/27 08:48:01;;;;;;;;;4.50;4.25;;;;;2.70;47.58;102321.63;4953086;28;45502;-57
2023/02/27 08:50:26;;;;;;;;;9.25;5.25;;;;;2.72;47.40;102330.41;4944930;28;45460;-56
2023/02/27 08:52:52;;;;;;;;;8.50;6.00;;;;;2.76;47.17;102322.53;4966632;28;59485;-57
2023/02/27 08:55:17;;;;;;;;;11.50;6.75;;;;;2.83;46.94;102317.34;4973653;28;47241;-58
2023/02/27 08:57:43;;;;;;;;;6.25;5.50;;;;;2.89;46.83;102328.75;4955841;28;46391;-57
2023/02/27 09:00:09;;;;;;;;;4.50;4.00;;;;;2.87;46.61;102341.03;4958300;28;45424;-57
2023/02/27 09:02:34;;;;;;;;;7.00;6.00;;;;;2.90;46.51;102335.78;4960514;28;45434;-57
2023/02/27 09:05:00;;;;;;;;;4.25;3.50;;;;;2.92;46.14;102323.53;4954539;28;46405;-57
2023/02/27 09:07:26;;;;;;;;;5.75;5.75;;;;;2.95;46.30;102336.69;4960343;28;45339;-57
2023/02/27 09:09:52;;;;;;;;;5.25;4.50;;;;;2.97;46.00;102337.59;4957779;28;45822;-56
2023/02/27 09:12:17;;;;;;;;;5.00;5.00;;;;;3.06;45.57;102346.41;4961429;28;45428;-58
2023/02/27 09:14:42;;;;;;;;;3.00;2.00;;;;;3.09;45.95;102343.78;4968795;28;60771;-57
2023/02/27 09:17:08;;;;;;;;;3.00;3.00;;;;;3.14;45.51;102353.47;4959572;28;57537;-57
2023/02/27 09:19:33;;;;;;;;;5.00;3.00;;;;;3.16;44.50;102347.34;4959913;28;45392;-57
2023/02/27 09:21:58;;;;;;;;;5.25;5.00;;;;;3.19;45.15;102345.59;4958146;28;60875;-58
2023/02/27 09:24:24;;;;;;;;;10.00;6.00;;;;;3.24;45.02;102349.13;4943000;28;47497;-58
2023/02/27 09:26:49;;;;;;;;;6.00;5.25;;;;;3.29;45.00;102349.16;4960982;28;45425;-57
2023/02/27 09:29:15;;;;;;;;;8.25;5.00;;;;;3.34;44.54;102352.69;4959886;28;45476;-57
2023/02/27 09:31:40;;;;;;;;;8.25;3.00;;;;;3.33;44.00;102336.91;4961373;28;45422;-57
2023/02/27 09:34:06;;;;;;;;;3.50;3.00;;;;;3.39;43.93;102343.06;4960005;28;46087;-57
2023/02/27 09:36:31;;;;;;;;;6.00;5.50;;;;;3.95;43.30;102337.97;4962774;28;63134;-56
2023/02/27 09:38:58;;;;;;;;;7.00;3.00;;;;;5.93;43.15;102351.69;4960984;28;45380;-57
2023/02/27 09:41:39;;;;;;;;;6.00;6.00;;;;;8.37;39.33;102332.28;4962044;28;45534;-56
2023/02/27 09:44:20;;;;;;;;;6.00;3.25;;;;;10.47;36.96;102326.22;4959904;28;46231;-57
2023/02/27 09:46:46;;;;;;;;;4.67;4.67;;;;;12.12;32.74;102324.19;4962291;28;45282;-58
2023/02/27 09:49:14;;;;;;;;;8.33;5.00;;;;;13.62;33.26;102321.63;4959707;28;49918;-57
2023/02/27 09:51:40;;;;;;;;;5.33;5.33;;;;;14.99;31.64;102315.09;4976316;28;45424;-57
2023/02/27 09:54:05;;;;;;;;;6.33;4.67;;;;;15.96;30.34;102316.94;4951991;28;66305;-58
2023/02/27 09:56:34;;;;;;;;;4.67;4.33;;;;;16.62;28.51;102313.59;4962197;28;45537;-57
2023/02/27 09:59:18;;;;;;;;;6.33;6.33;;;;;17.06;27.75;102324.81;4960885;28;45377;-56
2023/02/27 10:01:50;;;;;;;;;6.67;3.00;;;;;17.55;25.97;102316.75;4958993;28;45606;-55
2023/02/27 10:04:53;;;;;;;;;4.33;4.33;;;;;18.08;26.87;102308.44;4988712;28;46312;-55
2023/02/27 10:07:31;;;;;;;;;5.33;5.00;;;;;18.62;25.80;102316.91;4961685;28;45342;-56
2023/02/27 10:10:06;;;;;;;;;4.00;3.00;;;;;19.18;24.05;102313.53;4977246;28;45435;-56
2023/02/27 10:12:52;;;;;;;;;4.00;2.67;;;;;19.74;23.92;102307.31;4963588;28;45629;-55
2023/02/27 10:15:34;;;;;;;;;10.33;7.33;;;;;20.16;22.31;102305.47;4963926;28;45537;-56
2023/02/27 10:18:00;;;;;;;;;3.67;3.67;;;;;20.61;21.50;102310.53;4960110;28;45432;-57
2023/02/27 10:20:29;;;;;;;;;4.00;4.00;;;;;20.88;22.00;102312.31;4962006;28;45496;-57
2023/02/27 10:22:56;;;;;;;;;4.00;3.00;;;;;20.94;20.90;102304.63;4965184;28;45453;-58
2023/02/27 10:25:22;;;;;;;;;5.00;5.00;;;;;21.26;23.21;102301.50;4965438;28;46215;-58
2023/02/27 10:27:49;;;;;;;;;4.33;4.33;;;;;21.92;20.61;102301.22;4962232;28;52118;-58
2023/02/27 10:30:30;;;;;;;;;6.33;4.00;;;;;22.04;20.24;102301.28;4949637;28;45361;-58
2023/02/27 10:33:20;;;;;;;;;5.33;5.33;;;;;22.28;20.97;102302.13;4984546;28;45425;-57
2023/02/27 10:35:46;;;;;;;;;3.33;3.33;;;;;22.77;20.06;102299.31;4959249;28;47062;-58
2023/02/27 10:38:37;;;;;;;;;6.00;4.33;;;;;23.79;18.96;102302.03;4962015;28;45347;-58
2023/02/27 10:41:03;;;;;;;;;4.00;4.00;;;;;24.25;18.42;102310.94;4958008;28;45878;-58
2023/02/27 10:43:29;;;;;;;;;5.67;4.00;;;;;24.24;17.51;102301.91;4963198;28;45423;-58
2023/02/27 10:45:54;;;;;;;;;3.00;3.00;;;;;24.18;18.43;102302.41;4960379;28;45465;-58
2023/02/27 10:48:21;;;;;;;;;11.67;5.67;;;;;24.08;16.97;102320.53;4966320;28;45408;-58
2023/02/27 10:50:50;;;;;;;;;5.67;4.00;;;;;24.10;16.71;102300.34;4961023;28;45466;-57
2023/02/27 10:53:20;;;;;;;;;5.33;4.00;;;;;24.12;17.02;102316.53;4967513;28;45500;-58
2023/02/27 10:56:03;;;;;;;;;4.00;4.00;;;;;24.25;15.40;102303.63;4964561;28;46035;-58
2023/02/27 10:58:31;;;;;;;;;4.67;4.00;;;;;24.03;16.95;102303.75;4976669;28;45495;-57
2023/02/27 11:00:59;;;;;;;;;7.67;6.33;;;;;24.19;16.34;102306.00;4960844;28;45379;-58
2023/02/27 11:03:28;;;;;;;;;8.00;6.00;;;;;24.20;17.85;102308.59;4963623;28;45580;-58
2023/02/27 11:06:21;;;;;;;;;5.00;4.00;;;;;24.08;16.38;102293.34;4961708;28;47448;-58
2023/02/27 11:09:12;;;;;;;;;4.00;4.00;;;;;24.01;16.05;102298.41;4971429;28;45303;-58
2023/02/27 11:11:37;;;;;;;;;5.33;3.67;;;;;23.85;15.79;102304.25;4964803;28;45425;-58
2023/02/27 11:14:18;;;;;;;;;4.67;3.67;;;;;23.62;15.27;102314.28;4966419;28;45539;-58
2023/02/27 11:17:09;;;;;;;;;3.33;2.67;;;;;23.72;16.77;102287.25;4961788;28;46223;-58
2023/02/27 11:19:37;;;;;;;;;4.67;4.67;;;;;23.90;15.83;102291.16;4964260;28;45423;-58
2023/02/27 11:22:19;;;;;;;;;3.67;3.67;;;;;24.17;17.01;102287.13;4957640;28;45752;-58
2023/02/27 11:24:46;;;;;;;;;6.33;3.67;;;;;24.82;16.66;102291.59;4960415;28;45457;-59
2023/02/27 11:27:29;;;;;;;;;5.33;4.33;;;;;25.00;16.63;102284.53;4967644;28;46034;-58
2023/02/27 11:30:25;;;;;;;;;2.00;1.67;;;;;25.04;16.22;102285.13;4965019;28;45464;-58
2023/02/27 11:32:52;;;;;;;;;4.67;2.00;;;;;25.36;16.34;102275.97;4963611;28;45394;-59
2023/02/27 11:35:31;;;;;;;;;3.67;3.67;;;;;25.74;14.97;102277.03;4967549;28;45373;-59
2023/02/27 11:38:17;;;;;;;;;3.00;3.00;;;;;26.04;15.39;102270.63;4963781;28;45444;-58
2023/02/27 11:40:49;;;;;;;;;3.33;3.33;;;;;25.79;14.46;102269.31;4976885;28;45484;-59
2023/02/27 11:43:20;;;;;;;;;3.00;1.33;;;;;25.65;14.78;102275.19;4964548;28;45424;-59
2023/02/27 11:45:51;;;;;;;;;3.00;2.00;;;;;25.10;14.98;102271.81;4965862;28;45565;-59
2023/02/27 11:48:30;;;;;;;;;4.67;4.00;;;;;25.06;16.15;102266.81;4968625;28;46485;-59
2023/02/27 11:51:04;;;;;;;;;4.67;3.67;;;;;25.59;15.63;102269.28;4964069;28;45424;-59
2023/02/27 11:53:40;;;;;;;;;3.00;3.00;;;;;26.15;15.82;102261.47;4968392;28;45509;-59
2023/02/27 11:56:10;;;;;;;;;4.00;4.00;;;;;26.15;12.83;102269.66;4968378;28;45334;-59
2023/02/27 11:58:41;;;;;;;;;5.00;3.00;;;;;25.93;14.00;102259.88;4966095;28;45358;-59
2023/02/27 12:01:17;;;;;;;;;3.00;2.00;;;;;25.55;15.39;102262.41;4961399;28;45427;-59
2023/02/27 12:03:57;;;;;;;;;5.33;2.00;;;;;25.39;15.23;102249.31;4958278;28;45935;-59
2023/02/27 12:06:27;;;;;;;;;3.33;3.00;;;;;25.42;14.79;102253.59;4962145;28;45859;-59
2023/02/27 12:09:00;;;;;;;;;2.00;2.00;;;;;25.39;14.43;102256.63;4960898;28;46485;-58
2023/02/27 12:11:41;;;;;;;;;3.00;3.00;;;;;25.31;13.63;102251.84;4959704;28;45498;-59
2023/02/27 12:14:27;;;;;;;;;3.00;3.00;;;;;25.27;14.05;102255.84;4966602;28;45346;-59
2023/02/27 12:17:02;;;;;;;;;2.00;2.00;;;;;25.02;14.29;102249.03;4963978;28;45726;-58
2023/02/27 12:19:30;;;;;;;;;5.33;3.67;;;;;24.78;15.11;102250.19;4975645;28;46384;-59
2023/02/27 12:22:01;;;;;;;;;2.67;1.00;;;;;24.95;14.00;102245.97;4956200;28;45217;-58
2023/02/27 12:24:34;;;;;;;;;4.00;3.00;;;;;24.69;13.66;102245.56;4961045;28;45463;-59
2023/02/27 12:27:08;;;;;;;;;4.33;3.00;;;;;24.49;14.45;102237.25;4966958;28;45348;-59
2023/02/27 12:29:39;;;;;;;;;5.33;4.00;;;;;24.50;14.09;102241.72;4960806;28;45572;-59
2023/02/27 12:32:18;;;;;;;;;3.00;3.00;;;;;24.48;13.93;102229.25;4965983;28;45578;-59
2023/02/27 12:34:51;;;;;;;;;3.00;3.00;;;;;24.17;13.93;102238.19;4963634;28;45487;-59
2023/02/27 12:37:27;;;;;;;;;3.00;3.00;;;;;23.77;14.29;102234.25;4967486;28;45479;-60
2023/02/27 12:40:00;;;;;;;;;4.00;4.00;;;;;23.46;13.95;102233.22;4962413;28;45598;-59
2023/02/27 12:42:54;;;;;;;;;7.67;5.00;;;;;22.94;13.75;102232.88;4963964;28;45297;-59
2023/02/27 12:45:34;;;;;;;;;1.67;1.67;;;;;22.59;13.72;102225.72;4961510;28;45633;-59
2023/02/27 12:48:14;;;;;;;;;3.67;3.00;;;;;22.35;13.94;102223.06;4967169;28;45270;-58
2023/02/27 12:50:55;;;;;;;;;1.00;1.00;;;;;22.31;14.97;102220.56;4958961;28;45500;-59
2023/02/27 12:53:54;;;;;;;;;2.67;2.67;;;;;22.19;14.83;102221.53;4959438;28;45416;-59
2023/02/27 12:56:22;;;;;;;;;3.67;3.67;;;;;21.42;14.92;102216.47;4962666;28;45516;-59
2023/02/27 12:59:00;;;;;;;;;1.33;1.33;;;;;20.53;14.56;102219.16;4958734;28;45393;-59
2023/02/27 13:01:35;;;;;;;;;2.67;2.67;;;;;19.48;15.68;102215.44;4957326;28;46069;-59
2023/02/27 13:04:10;;;;;;;;;5.00;2.00;;;;;18.79;15.95;102208.06;4954166;28;45605;-59
2023/02/27 13:06:48;;;;;;;;;1.00;0.00;;;;;18.02;16.29;102207.38;4960270;28;45492;-59
2023/02/27 13:09:29;;;;;;;;;4.00;2.33;;;;;17.17;16.71;102196.06;4960020;28;45535;-59
2023/02/27 13:12:10;;;;;;;;;3.00;3.00;;;;;16.34;17.37;102207.59;4962838;28;46705;-59
2023/02/27 13:14:38;;;;;;;;;3.00;2.67;;;;;15.82;17.78;102200.41;4964496;28;45413;-59
2023/02/27 13:17:15;;;;;;;;;5.33;3.67;;;;;15.32;18.52;102201.91;4956975;28;45434;-59
2023/02/27 13:19:40;;;;;;;;;3.00;3.00;;;;;14.73;19.28;102198.38;4958985;28;45590;-59
2023/02/27 13:22:14;;;;;;;;;5.67;3.00;;;;;14.22;19.41;102200.59;4958095;28;47035;-59
2023/02/27 13:24:45;;;;;;;;;3.00;1.67;;;;;13.71;19.57;102190.25;4985816;28;45585;-59
2023/02/27 13:27:32;;;;;;;;;2.33;2.00;;;;;13.44;19.90;102196.72;4941465;28;45407;-59
2023/02/27 13:30:04;;;;;;;;;3.67;2.00;;;;;13.24;20.23;102184.97;4957535;28;45286;-58
2023/02/27 13:32:57;;;;;;;;;4.00;4.00;;;;;13.02;20.91;102184.94;4949237;28;46164;-59
2023/02/27 13:35:28;;;;;;;;;8.33;6.00;;;;;12.98;21.06;102194.00;4959341;28;45480;-59
2023/02/27 13:37:57;;;;;;;;;5.00;3.33;;;;;12.92;20.89;102184.44;4956118;28;45453;-59
2023/02/27 13:40:37;;;;;;;;;4.00;4.00;;;;;12.67;21.26;102185.34;4971772;28;46095;-59
2023/02/27 13:43:02;;;;;;;;;1.67;1.67;;;;;12.49;21.17;102188.66;4958043;28;46298;-58
2023/02/27 13:45:49;;;;;;;;;4.00;4.00;;;;;12.21;21.52;102190.50;4964048;28;45345;-59
2023/02/27 13:48:32;;;;;;;;;4.33;3.00;;;;;11.93;22.02;102187.91;4958388;28;45510;-59
2023/02/27 13:50:58;;;;;;;;;5.33;3.67;;;;;11.81;22.07;102189.19;4957355;28;45551;-59
2023/02/27 13:53:23;;;;;;;;;3.67;3.67;;;;;11.65;22.48;102204.78;4957961;28;45520;-59
2023/02/27 13:55:57;;;;;;;;;2.67;2.67;;;;;11.48;22.15;102188.50;4941400;28;45508;-59
2023/02/27 13:58:23;;;;;;;;;3.00;2.00;;;;;11.31;22.37;102191.69;4962413;28;45333;-58
2023/02/27 14:00:55;;;;;;;;;4.33;3.67;;;;;11.14;22.46;102200.19;4978216;28;45252;-59
2023/02/27 14:03:24;;;;;;;;;2.00;2.00;;;;;10.93;22.75;102190.13;4952854;28;46789;-59
2023/02/27 14:05:52;;;;;;;;;3.67;2.33;;;;;10.76;22.59;102177.31;4955537;28;45472;-59
2023/02/27 14:08:20;;;;;;;;;3.00;3.00;;;;;10.65;23.15;102182.09;4957306;28;45517;-58
2023/02/27 14:10:55;;;;;;;;;3.33;3.33;;;;;10.52;23.17;102176.22;4957789;28;45414;-58
2023/02/27 14:13:50;;;;;;;;;2.00;2.00;;;;;10.43;23.83;102179.16;4959217;28;46068;-58
2023/02/27 14:16:37;;;;;;;;;1.67;1.00;;;;;10.41;23.33;102186.28;4961750;28;45375;-58
2023/02/27 14:19:16;;;;;;;;;5.33;3.00;;;;;10.29;23.50;102194.56;4953150;28;45535;-58
2023/02/27 14:22:00;;;;;;;;;2.00;2.00;;;;;10.19;23.54;102189.47;4963415;28;45710;-58
2023/02/27 14:25:05;;;;;;;;;4.00;1.00;;;;;10.09;23.75;102201.28;4960717;28;45362;-58
2023/02/27 14:27:52;;;;;;;;;2.00;2.00;;;;;10.06;23.98;102191.59;4973868;28;45541;-58
2023/02/27 14:30:34;;;;;;;;;3.33;1.67;;;;;10.05;24.33;102194.28;4960023;28;45384;-59
2023/02/27 14:33:23;;;;;;;;;7.00;4.00;;;;;10.02;24.35;102186.41;4956699;28;45456;-58
2023/02/27 14:36:00;;;;;;;;;3.33;3.00;;;;;10.06;23.83;102193.38;4956431;28;46301;-58
2023/02/27 14:38:27;;;;;;;;;2.00;2.00;;;;;10.02;24.10;102192.56;4968761;28;45314;-58
2023/02/27 14:41:03;;;;;;;;;3.00;3.00;;;;;10.04;24.29;102197.88;4947029;28;45665;-58
2023/02/27 14:43:38;;;;;;;;;3.00;3.00;;;;;10.06;24.19;102194.25;4955942;28;45447;-58
2023/02/27 14:46:06;;;;;;;;;3.00;3.00;;;;;10.06;24.03;102196.91;4959694;28;46099;-59
2023/02/27 14:48:32;;;;;;;;;3.00;3.00;;;;;10.05;23.82;102181.88;4954649;28;45561;-58
2023/02/27 14:51:00;;;;;;;;;3.00;3.00;;;;;10.04;24.10;102177.47;4954726;28;45432;-58
2023/02/27 14:53:26;;;;;;;;;2.67;2.67;;;;;9.98;24.27;102196.22;4963503;28;45554;-58
2023/02/27 14:55:54;;;;;;;;;0.67;0.67;;;;;9.89;24.47;102191.16;4959463;28;45578;-59
2023/02/27 14:58:20;;;;;;;;;3.33;2.33;;;;;9.75;24.57;102173.75;4958437;28;45541;-58
2023/02/27 15:01:05;;;;;;;;;2.00;2.00;;;;;9.75;24.89;102183.50;4993679;28;45446;-59
2023/02/27 15:03:46;;;;;;;;;5.00;3.00;;;;;9.74;24.97;102187.09;4963665;28;45522;-59
2023/02/27 15:06:21;;;;;;;;;3.00;3.00;;;;;9.65;24.92;102184.63;4960232;28;46579;-59
2023/02/27 15:08:51;;;;;;;;;4.33;3.00;;;;;9.60;24.88;102176.78;4964316;28;45422;-59
2023/02/27 15:11:21;;;;;;;;;3.67;3.67;;;;;9.51;25.02;102172.56;4964694;28;45489;-59
2023/02/27 15:13:52;;;;;;;;;4.33;3.00;;;;;9.44;24.97;102169.19;4963279;28;45451;-59
2023/02/27 15:16:30;;;;;;;;;3.00;3.00;;;;;9.48;25.25;102172.66;4962662;28;45473;-59
2023/02/27 15:18:59;;;;;;;;;5.00;4.00;;;;;9.44;25.34;102173.63;4987682;28;45274;-59
2023/02/27 15:21:26;;;;;;;;;2.67;1.67;;;;;9.48;25.33;102177.06;4959918;28;45461;-58
2023/02/27 15:23:54;;;;;;;;;4.00;4.00;;;;;9.39;25.55;102167.56;4969814;28;45357;-58
2023/02/27 15:26:19;;;;;;;;;4.67;3.00;;;;;9.36;25.57;102175.56;4962188;28;45570;-58
2023/02/27 15:28:46;;;;;;;;;3.33;2.33;;;;;9.26;25.55;102180.25;4960932;28;60319;-58
2023/02/27 15:31:18;;;;;;;;;4.33;4.33;;;;;9.17;25.73;102181.31;4968117;28;45432;-58
2023/02/27 15:33:43;;;;;;;;;2.00;2.00;;;;;9.15;25.78;102166.31;4993572;28;45725;-58
2023/02/27 15:36:19;;;;;;;;;3.00;3.00;;;;;9.13;25.81;102169.00;4959668;28;46022;-58
2023/02/27 15:38:44;;;;;;;;;6.33;5.33;;;;;9.14;25.94;102181.38;4961127;28;45405;-58
2023/02/27 15:41:11;;;;;;;;;5.67;4.33;;;;;9.12;26.19;102183.19;4962675;28;59052;-58
2023/02/27 15:43:36;;;;;;;;;4.00;4.00;;;;;9.11;26.41;102176.13;4958509;28;45483;-58
2023/02/27 15:46:02;;;;;;;;;7.00;4.00;;;;;9.09;26.44;102173.50;4962750;28;46419;-58